sensor_id;sensor_type;location;lat;lon;timestamp;P1;durP1;ratioP1;P2;durP2;ratioP2
8092;SDS011;4089;52.420;13.334;2023-11-21T00:00:13;24.67;;;2.40;;
8092;SDS011;4089;52.420;13.334;2023-11-21T00:02:41;22.30;;;2.30;;
8092;SDS011;4089;52.420;13.334;2023-11-21T00:05:08;25.70;;;2.80;;
8092;SDS011;4089;52.420;13.334;2023-11-21T00:07:37;22.20;;;2.37;;
8092;SDS011;4089;52.420;13.334;2023-11-21T00:10:04;24.57;;;2.60;;
8092;SDS011;4089;52.420;13.334;2023-11-21T00:12:37;24.87;;;2.27;;
8092;SDS011;4089;52.420;13.334;2023-11-21T00:15:04;21.30;;;2.10;;
8092;SDS011;4089;52.420;13.334;2023-11-21T00:17:32;22.47;;;2.37;;
8092;SDS011;4089;52.420;13.334;2023-11-21T00:19:58;31.73;;;3.93;;
8092;SDS011;4089;52.420;13.334;2023-11-21T00:22:25;27.80;;;6.27;;
8092;SDS011;4089;52.420;13.334;2023-11-21T00:24:52;29.00;;;6.70;;
8092;SDS011;4089;52.420;13.334;2023-11-21T00:27:19;29.20;;;6.70;;
8092;SDS011;4089;52.420;13.334;2023-11-21T00:29:46;30.70;;;6.67;;
8092;SDS011;4089;52.420;13.334;2023-11-21T00:32:13;30.90;;;7.20;;
8092;SDS011;4089;52.420;13.334;2023-11-21T00:34:40;33.30;;;7.43;;
8092;SDS011;4089;52.420;13.334;2023-11-21T00:37:08;32.47;;;8.40;;
8092;SDS011;4089;52.420;13.334;2023-11-21T00:39:35;32.07;;;9.40;;
8092;SDS011;4089;52.420;13.334;2023-11-21T00:42:02;39.30;;;10.07;;
8092;SDS011;4089;52.420;13.334;2023-11-21T00:44:31;38.90;;;10.23;;
8092;SDS011;4089;52.420;13.334;2023-11-21T00:46:57;37.97;;;9.60;;
8092;SDS011;4089;52.420;13.334;2023-11-21T00:49:24;39.73;;;10.47;;
8092;SDS011;4089;52.420;13.334;2023-11-21T00:51:51;40.53;;;11.50;;
8092;SDS011;4089;52.420;13.334;2023-11-21T00:54:18;43.67;;;11.33;;
8092;SDS011;4089;52.420;13.334;2023-11-21T00:56:45;46.90;;;12.23;;
8092;SDS011;4089;52.420;13.334;2023-11-21T00:59:13;43.63;;;12.50;;
8092;SDS011;4089;52.420;13.334;2023-11-21T01:01:40;44.17;;;13.57;;
8092;SDS011;4089;52.420;13.334;2023-11-21T01:04:07;65.23;;;16.30;;
8092;SDS011;4089;52.420;13.334;2023-11-21T01:06:34;52.30;;;15.90;;
8092;SDS011;4089;52.420;13.334;2023-11-21T01:09:00;51.90;;;16.27;;
8092;SDS011;4089;52.420;13.334;2023-11-21T01:11:27;52.13;;;15.27;;
8092;SDS011;4089;52.420;13.334;2023-11-21T01:13:54;53.00;;;16.60;;
8092;SDS011;4089;52.420;13.334;2023-11-21T01:16:21;59.50;;;17.77;;
8092;SDS011;4089;52.420;13.334;2023-11-21T01:18:48;58.20;;;17.63;;
8092;SDS011;4089;52.420;13.334;2023-11-21T01:21:15;73.13;;;18.50;;
8092;SDS011;4089;52.420;13.334;2023-11-21T01:23:42;66.50;;;19.20;;
8092;SDS011;4089;52.420;13.334;2023-11-21T01:26:08;69.80;;;19.70;;
8092;SDS011;4089;52.420;13.334;2023-11-21T01:28:35;64.80;;;19.10;;
8092;SDS011;4089;52.420;13.334;2023-11-21T01:31:02;60.77;;;17.70;;
8092;SDS011;4089;52.420;13.334;2023-11-21T01:33:29;71.83;;;17.97;;
8092;SDS011;4089;52.420;13.334;2023-11-21T01:35:56;59.97;;;17.90;;
8092;SDS011;4089;52.420;13.334;2023-11-21T01:38:23;68.53;;;18.67;;
8092;SDS011;4089;52.420;13.334;2023-11-21T01:40:50;74.07;;;19.70;;
8092;SDS011;4089;52.420;13.334;2023-11-21T01:43:16;77.37;;;17.53;;
8092;SDS011;4089;52.420;13.334;2023-11-21T01:45:43;68.97;;;20.20;;
8092;SDS011;4089;52.420;13.334;2023-11-21T01:48:13;84.60;;;21.33;;
8092;SDS011;4089;52.420;13.334;2023-11-21T01:50:43;92.77;;;23.13;;
8092;SDS011;4089;52.420;13.334;2023-11-21T01:53:10;80.23;;;22.83;;
8092;SDS011;4089;52.420;13.334;2023-11-21T01:55:39;89.97;;;24.73;;
8092;SDS011;4089;52.420;13.334;2023-11-21T01:58:11;105.70;;;25.53;;
8092;SDS011;4089;52.420;13.334;2023-11-21T02:00:42;98.87;;;26.13;;
8092;SDS011;4089;52.420;13.334;2023-11-21T02:03:09;112.80;;;24.37;;
8092;SDS011;4089;52.420;13.334;2023-11-21T02:05:36;103.10;;;24.30;;
8092;SDS011;4089;52.420;13.334;2023-11-21T02:08:03;93.10;;;24.50;;
8092;SDS011;4089;52.420;13.334;2023-11-21T02:10:30;105.10;;;26.77;;
8092;SDS011;4089;52.420;13.334;2023-11-21T02:12:58;97.67;;;25.53;;
8092;SDS011;4089;52.420;13.334;2023-11-21T02:15:26;112.53;;;26.27;;
8092;SDS011;4089;52.420;13.334;2023-11-21T02:17:55;105.43;;;23.50;;
8092;SDS011;4089;52.420;13.334;2023-11-21T02:20:25;97.10;;;21.50;;
8092;SDS011;4089;52.420;13.334;2023-11-21T02:22:55;82.57;;;19.47;;
8092;SDS011;4089;52.420;13.334;2023-11-21T02:25:27;90.23;;;22.47;;
8092;SDS011;4089;52.420;13.334;2023-11-21T02:27:56;84.80;;;19.33;;
8092;SDS011;4089;52.420;13.334;2023-11-21T02:30:24;66.23;;;17.60;;
8092;SDS011;4089;52.420;13.334;2023-11-21T02:32:54;68.77;;;15.53;;
8092;SDS011;4089;52.420;13.334;2023-11-21T02:35:23;64.43;;;15.27;;
8092;SDS011;4089;52.420;13.334;2023-11-21T02:37:52;65.43;;;16.20;;
8092;SDS011;4089;52.420;13.334;2023-11-21T02:40:20;63.53;;;15.93;;
8092;SDS011;4089;52.420;13.334;2023-11-21T02:42:47;65.53;;;15.77;;
8092;SDS011;4089;52.420;13.334;2023-11-21T02:45:15;61.20;;;14.17;;
8092;SDS011;4089;52.420;13.334;2023-11-21T02:47:43;59.57;;;12.90;;
8092;SDS011;4089;52.420;13.334;2023-11-21T02:50:11;54.40;;;14.60;;
8092;SDS011;4089;52.420;13.334;2023-11-21T02:52:38;48.93;;;12.40;;
8092;SDS011;4089;52.420;13.334;2023-11-21T02:55:06;54.77;;;11.70;;
8092;SDS011;4089;52.420;13.334;2023-11-21T02:57:33;60.07;;;13.00;;
8092;SDS011;4089;52.420;13.334;2023-11-21T03:00:00;52.00;;;12.30;;
8092;SDS011;4089;52.420;13.334;2023-11-21T03:02:27;50.03;;;12.40;;
8092;SDS011;4089;52.420;13.334;2023-11-21T03:04:54;51.77;;;12.73;;
8092;SDS011;4089;52.420;13.334;2023-11-21T03:07:21;51.67;;;12.23;;
8092;SDS011;4089;52.420;13.334;2023-11-21T03:09:48;46.97;;;12.10;;
8092;SDS011;4089;52.420;13.334;2023-11-21T03:12:14;50.50;;;11.87;;
8092;SDS011;4089;52.420;13.334;2023-11-21T03:14:42;55.97;;;12.97;;
8092;SDS011;4089;52.420;13.334;2023-11-21T03:17:09;52.37;;;11.13;;
8092;SDS011;4089;52.420;13.334;2023-11-21T03:19:35;47.60;;;13.43;;
8092;SDS011;4089;52.420;13.334;2023-11-21T03:22:02;49.47;;;12.77;;
8092;SDS011;4089;52.420;13.334;2023-11-21T03:24:30;48.00;;;11.70;;
8092;SDS011;4089;52.420;13.334;2023-11-21T03:26:57;65.87;;;13.10;;
8092;SDS011;4089;52.420;13.334;2023-11-21T03:29:24;45.67;;;13.57;;
8092;SDS011;4089;52.420;13.334;2023-11-21T03:31:51;52.67;;;12.60;;
8092;SDS011;4089;52.420;13.334;2023-11-21T03:34:25;46.43;;;12.90;;
8092;SDS011;4089;52.420;13.334;2023-11-21T03:36:53;55.00;;;12.57;;
8092;SDS011;4089;52.420;13.334;2023-11-21T03:39:20;51.07;;;12.30;;
8092;SDS011;4089;52.420;13.334;2023-11-21T03:41:48;51.30;;;13.13;;
8092;SDS011;4089;52.420;13.334;2023-11-21T03:44:15;45.60;;;14.07;;
8092;SDS011;4089;52.420;13.334;2023-11-21T03:46:42;53.27;;;13.43;;
8092;SDS011;4089;52.420;13.334;2023-11-21T03:49:09;48.50;;;15.13;;
8092;SDS011;4089;52.420;13.334;2023-11-21T03:51:37;42.43;;;14.77;;
8092;SDS011;4089;52.420;13.334;2023-11-21T03:54:04;41.13;;;13.57;;
8092;SDS011;4089;52.420;13.334;2023-11-21T03:56:30;39.27;;;11.93;;
8092;SDS011;4089;52.420;13.334;2023-11-21T03:58:57;40.00;;;13.17;;
8092;SDS011;4089;52.420;13.334;2023-11-21T04:01:24;48.77;;;15.50;;
8092;SDS011;4089;52.420;13.334;2023-11-21T04:03:51;47.30;;;12.87;;
8092;SDS011;4089;52.420;13.334;2023-11-21T04:06:18;35.57;;;7.83;;
8092;SDS011;4089;52.420;13.334;2023-11-21T04:08:45;36.60;;;11.00;;
8092;SDS011;4089;52.420;13.334;2023-11-21T04:11:12;34.80;;;10.90;;
8092;SDS011;4089;52.420;13.334;2023-11-21T04:13:39;35.30;;;10.60;;
8092;SDS011;4089;52.420;13.334;2023-11-21T04:16:07;33.20;;;9.93;;
8092;SDS011;4089;52.420;13.334;2023-11-21T04:18:35;33.30;;;10.03;;
8092;SDS011;4089;52.420;13.334;2023-11-21T04:21:03;41.97;;;10.20;;
8092;SDS011;4089;52.420;13.334;2023-11-21T04:23:34;36.50;;;11.10;;
8092;SDS011;4089;52.420;13.334;2023-11-21T04:26:02;35.10;;;10.80;;
8092;SDS011;4089;52.420;13.334;2023-11-21T04:28:29;33.87;;;8.37;;
8092;SDS011;4089;52.420;13.334;2023-11-21T04:30:56;33.73;;;9.17;;
8092;SDS011;4089;52.420;13.334;2023-11-21T04:33:23;36.60;;;10.97;;
8092;SDS011;4089;52.420;13.334;2023-11-21T04:35:50;30.17;;;9.47;;
8092;SDS011;4089;52.420;13.334;2023-11-21T04:38:17;30.73;;;9.33;;
8092;SDS011;4089;52.420;13.334;2023-11-21T04:40:45;33.00;;;8.70;;
8092;SDS011;4089;52.420;13.334;2023-11-21T04:43:12;35.33;;;11.50;;
8092;SDS011;4089;52.420;13.334;2023-11-21T04:45:38;36.33;;;11.30;;
8092;SDS011;4089;52.420;13.334;2023-11-21T04:48:07;34.10;;;8.97;;
8092;SDS011;4089;52.420;13.334;2023-11-21T04:50:34;32.23;;;9.53;;
8092;SDS011;4089;52.420;13.334;2023-11-21T04:53:01;33.03;;;9.40;;
8092;SDS011;4089;52.420;13.334;2023-11-21T04:55:28;35.33;;;10.67;;
8092;SDS011;4089;52.420;13.334;2023-11-21T04:57:55;36.30;;;11.00;;
8092;SDS011;4089;52.420;13.334;2023-11-21T05:00:22;32.60;;;8.97;;
8092;SDS011;4089;52.420;13.334;2023-11-21T05:02:49;33.43;;;10.47;;
8092;SDS011;4089;52.420;13.334;2023-11-21T05:05:16;33.00;;;9.83;;
8092;SDS011;4089;52.420;13.334;2023-11-21T05:07:44;32.73;;;10.40;;
8092;SDS011;4089;52.420;13.334;2023-11-21T05:10:11;36.53;;;10.80;;
8092;SDS011;4089;52.420;13.334;2023-11-21T05:12:39;38.47;;;11.30;;
8092;SDS011;4089;52.420;13.334;2023-11-21T05:15:07;34.70;;;10.70;;
8092;SDS011;4089;52.420;13.334;2023-11-21T05:17:39;36.23;;;11.30;;
8092;SDS011;4089;52.420;13.334;2023-11-21T05:20:10;38.00;;;11.43;;
8092;SDS011;4089;52.420;13.334;2023-11-21T05:22:39;36.77;;;10.00;;
8092;SDS011;4089;52.420;13.334;2023-11-21T05:25:06;31.57;;;8.97;;
8092;SDS011;4089;52.420;13.334;2023-11-21T05:27:35;33.17;;;8.47;;
8092;SDS011;4089;52.420;13.334;2023-11-21T05:30:02;32.63;;;10.30;;
8092;SDS011;4089;52.420;13.334;2023-11-21T05:32:35;34.53;;;9.10;;
8092;SDS011;4089;52.420;13.334;2023-11-21T05:35:02;32.53;;;10.30;;
8092;SDS011;4089;52.420;13.334;2023-11-21T05:37:29;34.13;;;8.50;;
8092;SDS011;4089;52.420;13.334;2023-11-21T05:39:56;36.20;;;10.20;;
8092;SDS011;4089;52.420;13.334;2023-11-21T05:42:23;32.80;;;9.70;;
8092;SDS011;4089;52.420;13.334;2023-11-21T05:44:50;31.27;;;9.07;;
8092;SDS011;4089;52.420;13.334;2023-11-21T05:47:17;31.40;;;8.63;;
8092;SDS011;4089;52.420;13.334;2023-11-21T05:49:44;32.17;;;9.63;;
8092;SDS011;4089;52.420;13.334;2023-11-21T05:52:16;33.23;;;8.90;;
8092;SDS011;4089;52.420;13.334;2023-11-21T05:54:44;31.97;;;8.83;;
8092;SDS011;4089;52.420;13.334;2023-11-21T05:57:10;30.10;;;6.63;;
8092;SDS011;4089;52.420;13.334;2023-11-21T05:59:37;30.00;;;7.67;;
8092;SDS011;4089;52.420;13.334;2023-11-21T06:02:04;31.43;;;7.40;;
8092;SDS011;4089;52.420;13.334;2023-11-21T06:04:31;29.03;;;7.20;;
8092;SDS011;4089;52.420;13.334;2023-11-21T06:06:58;29.67;;;8.00;;
8092;SDS011;4089;52.420;13.334;2023-11-21T06:09:27;29.00;;;7.50;;
8092;SDS011;4089;52.420;13.334;2023-11-21T06:11:54;26.53;;;5.73;;
8092;SDS011;4089;52.420;13.334;2023-11-21T06:14:20;29.07;;;6.77;;
8092;SDS011;4089;52.420;13.334;2023-11-21T06:16:48;28.13;;;7.20;;
8092;SDS011;4089;52.420;13.334;2023-11-21T06:19:17;26.67;;;6.33;;
8092;SDS011;4089;52.420;13.334;2023-11-21T06:21:47;29.23;;;7.17;;
8092;SDS011;4089;52.420;13.334;2023-11-21T06:24:14;28.03;;;6.80;;
8092;SDS011;4089;52.420;13.334;2023-11-21T06:26:41;26.97;;;5.37;;
8092;SDS011;4089;52.420;13.334;2023-11-21T06:29:10;27.10;;;6.73;;
8092;SDS011;4089;52.420;13.334;2023-11-21T06:31:37;29.93;;;6.97;;
8092;SDS011;4089;52.420;13.334;2023-11-21T06:34:04;28.87;;;7.40;;
8092;SDS011;4089;52.420;13.334;2023-11-21T06:36:31;27.37;;;6.80;;
8092;SDS011;4089;52.420;13.334;2023-11-21T06:38:57;28.30;;;7.60;;
8092;SDS011;4089;52.420;13.334;2023-11-21T06:41:24;27.63;;;6.23;;
8092;SDS011;4089;52.420;13.334;2023-11-21T06:43:51;27.00;;;6.47;;
8092;SDS011;4089;52.420;13.334;2023-11-21T06:46:19;29.67;;;7.07;;
8092;SDS011;4089;52.420;13.334;2023-11-21T06:48:46;28.67;;;6.10;;
8092;SDS011;4089;52.420;13.334;2023-11-21T06:51:15;29.20;;;6.43;;
8092;SDS011;4089;52.420;13.334;2023-11-21T06:53:41;28.03;;;5.93;;
8092;SDS011;4089;52.420;13.334;2023-11-21T06:56:15;28.47;;;6.00;;
8092;SDS011;4089;52.420;13.334;2023-11-21T06:58:43;25.63;;;5.53;;
8092;SDS011;4089;52.420;13.334;2023-11-21T07:01:12;25.93;;;5.37;;
8092;SDS011;4089;52.420;13.334;2023-11-21T07:03:39;25.97;;;5.97;;
8092;SDS011;4089;52.420;13.334;2023-11-21T07:06:07;26.63;;;5.80;;
8092;SDS011;4089;52.420;13.334;2023-11-21T07:08:35;26.30;;;5.93;;
8092;SDS011;4089;52.420;13.334;2023-11-21T07:11:01;27.80;;;5.13;;
8092;SDS011;4089;52.420;13.334;2023-11-21T07:13:30;26.90;;;6.63;;
8092;SDS011;4089;52.420;13.334;2023-11-21T07:15:57;26.30;;;5.70;;
8092;SDS011;4089;52.420;13.334;2023-11-21T07:18:25;27.03;;;5.90;;
8092;SDS011;4089;52.420;13.334;2023-11-21T07:20:52;24.63;;;4.97;;
8092;SDS011;4089;52.420;13.334;2023-11-21T07:23:19;25.23;;;5.07;;
8092;SDS011;4089;52.420;13.334;2023-11-21T07:25:48;25.07;;;5.10;;
8092;SDS011;4089;52.420;13.334;2023-11-21T07:28:15;24.43;;;5.13;;
8092;SDS011;4089;52.420;13.334;2023-11-21T07:30:42;24.33;;;4.43;;
8092;SDS011;4089;52.420;13.334;2023-11-21T07:33:10;25.03;;;5.33;;
8092;SDS011;4089;52.420;13.334;2023-11-21T07:35:36;25.50;;;4.83;;
8092;SDS011;4089;52.420;13.334;2023-11-21T07:38:03;24.67;;;5.43;;
8092;SDS011;4089;52.420;13.334;2023-11-21T07:40:30;25.70;;;5.77;;
8092;SDS011;4089;52.420;13.334;2023-11-21T07:42:58;24.90;;;4.87;;
8092;SDS011;4089;52.420;13.334;2023-11-21T07:45:25;25.47;;;5.70;;
8092;SDS011;4089;52.420;13.334;2023-11-21T07:47:54;30.17;;;6.47;;
8092;SDS011;4089;52.420;13.334;2023-11-21T07:50:22;28.10;;;6.30;;
8092;SDS011;4089;52.420;13.334;2023-11-21T07:52:49;26.53;;;6.53;;
8092;SDS011;4089;52.420;13.334;2023-11-21T07:55:16;26.33;;;6.30;;
8092;SDS011;4089;52.420;13.334;2023-11-21T07:57:43;25.97;;;5.00;;
8092;SDS011;4089;52.420;13.334;2023-11-21T08:00:10;26.20;;;4.77;;
8092;SDS011;4089;52.420;13.334;2023-11-21T08:02:39;24.67;;;5.03;;
8092;SDS011;4089;52.420;13.334;2023-11-21T08:05:09;27.90;;;5.50;;
8092;SDS011;4089;52.420;13.334;2023-11-21T08:07:49;25.57;;;5.67;;
8092;SDS011;4089;52.420;13.334;2023-11-21T08:10:17;23.80;;;4.63;;
8092;SDS011;4089;52.420;13.334;2023-11-21T08:12:44;24.77;;;4.50;;
8092;SDS011;4089;52.420;13.334;2023-11-21T08:15:11;25.77;;;5.40;;
8092;SDS011;4089;52.420;13.334;2023-11-21T08:17:38;24.00;;;4.40;;
8092;SDS011;4089;52.420;13.334;2023-11-21T08:20:05;23.17;;;4.40;;
8092;SDS011;4089;52.420;13.334;2023-11-21T08:22:35;23.83;;;4.73;;
8092;SDS011;4089;52.420;13.334;2023-11-21T08:25:02;26.77;;;5.17;;
8092;SDS011;4089;52.420;13.334;2023-11-21T08:27:30;29.23;;;5.33;;
8092;SDS011;4089;52.420;13.334;2023-11-21T08:29:57;24.27;;;4.37;;
8092;SDS011;4089;52.420;13.334;2023-11-21T08:32:26;24.13;;;4.80;;
8092;SDS011;4089;52.420;13.334;2023-11-21T08:34:53;25.70;;;5.43;;
8092;SDS011;4089;52.420;13.334;2023-11-21T08:37:20;27.50;;;4.80;;
8092;SDS011;4089;52.420;13.334;2023-11-21T08:39:48;24.77;;;5.17;;
8092;SDS011;4089;52.420;13.334;2023-11-21T08:42:15;23.57;;;4.30;;
8092;SDS011;4089;52.420;13.334;2023-11-21T08:44:42;25.03;;;4.10;;
8092;SDS011;4089;52.420;13.334;2023-11-21T08:47:09;27.07;;;4.87;;
8092;SDS011;4089;52.420;13.334;2023-11-21T08:49:36;24.23;;;4.37;;
8092;SDS011;4089;52.420;13.334;2023-11-21T08:52:04;30.03;;;5.27;;
8092;SDS011;4089;52.420;13.334;2023-11-21T08:54:31;27.90;;;5.50;;
8092;SDS011;4089;52.420;13.334;2023-11-21T08:56:58;25.80;;;4.60;;
8092;SDS011;4089;52.420;13.334;2023-11-21T08:59:25;27.10;;;6.60;;
8092;SDS011;4089;52.420;13.334;2023-11-21T09:01:52;30.67;;;5.90;;
8092;SDS011;4089;52.420;13.334;2023-11-21T09:04:19;32.70;;;6.30;;
8092;SDS011;4089;52.420;13.334;2023-11-21T09:06:46;27.00;;;5.57;;
8092;SDS011;4089;52.420;13.334;2023-11-21T09:09:13;31.63;;;6.47;;
8092;SDS011;4089;52.420;13.334;2023-11-21T09:11:40;27.77;;;5.23;;
8092;SDS011;4089;52.420;13.334;2023-11-21T09:14:07;28.70;;;5.70;;
8092;SDS011;4089;52.420;13.334;2023-11-21T09:16:35;35.78;;;6.10;;
8092;SDS011;4089;52.420;13.334;2023-11-21T09:19:01;31.23;;;7.27;;
8092;SDS011;4089;52.420;13.334;2023-11-21T09:21:31;31.20;;;6.60;;
8092;SDS011;4089;52.420;13.334;2023-11-21T09:23:59;31.30;;;6.50;;
8092;SDS011;4089;52.420;13.334;2023-11-21T09:26:26;34.27;;;6.17;;
8092;SDS011;4089;52.420;13.334;2023-11-21T09:28:53;37.90;;;6.60;;
8092;SDS011;4089;52.420;13.334;2023-11-21T09:31:20;31.20;;;5.50;;
8092;SDS011;4089;52.420;13.334;2023-11-21T09:33:49;29.10;;;6.40;;
8092;SDS011;4089;52.420;13.334;2023-11-21T09:36:16;32.50;;;6.83;;
8092;SDS011;4089;52.420;13.334;2023-11-21T09:38:42;30.53;;;5.50;;
8092;SDS011;4089;52.420;13.334;2023-11-21T09:41:13;30.67;;;6.23;;
8092;SDS011;4089;52.420;13.334;2023-11-21T09:43:47;36.13;;;6.50;;
8092;SDS011;4089;52.420;13.334;2023-11-21T09:46:21;31.47;;;5.97;;
8092;SDS011;4089;52.420;13.334;2023-11-21T09:48:52;35.08;;;7.10;;
8092;SDS011;4089;52.420;13.334;2023-11-21T09:51:19;34.60;;;7.20;;
8092;SDS011;4089;52.420;13.334;2023-11-21T09:53:49;32.83;;;6.30;;
8092;SDS011;4089;52.420;13.334;2023-11-21T09:56:18;32.07;;;5.50;;
8092;SDS011;4089;52.420;13.334;2023-11-21T09:58:52;33.77;;;6.23;;
8092;SDS011;4089;52.420;13.334;2023-11-21T10:01:20;34.97;;;6.60;;
8092;SDS011;4089;52.420;13.334;2023-11-21T10:03:49;31.73;;;6.50;;
8092;SDS011;4089;52.420;13.334;2023-11-21T10:06:17;34.57;;;6.97;;
8092;SDS011;4089;52.420;13.334;2023-11-21T10:08:44;27.00;;;5.27;;
8092;SDS011;4089;52.420;13.334;2023-11-21T10:11:21;30.30;;;6.10;;
8092;SDS011;4089;52.420;13.334;2023-11-21T10:13:54;34.83;;;7.07;;
8092;SDS011;4089;52.420;13.334;2023-11-21T10:16:24;38.93;;;7.03;;
8092;SDS011;4089;52.420;13.334;2023-11-21T10:18:53;29.63;;;6.30;;
8092;SDS011;4089;52.420;13.334;2023-11-21T10:21:37;34.40;;;5.97;;
8092;SDS011;4089;52.420;13.334;2023-11-21T10:24:05;29.50;;;5.43;;
8092;SDS011;4089;52.420;13.334;2023-11-21T10:26:33;24.77;;;4.03;;
8092;SDS011;4089;52.420;13.334;2023-11-21T10:29:16;25.10;;;4.60;;
8092;SDS011;4089;52.420;13.334;2023-11-21T10:31:43;30.15;;;5.60;;
8092;SDS011;4089;52.420;13.334;2023-11-21T10:34:15;28.17;;;5.00;;
8092;SDS011;4089;52.420;13.334;2023-11-21T10:36:42;27.87;;;4.50;;
8092;SDS011;4089;52.420;13.334;2023-11-21T10:39:13;29.30;;;4.70;;
8092;SDS011;4089;52.420;13.334;2023-11-21T10:41:44;26.50;;;3.90;;
8092;SDS011;4089;52.420;13.334;2023-11-21T10:44:16;28.40;;;4.77;;
8092;SDS011;4089;52.420;13.334;2023-11-21T10:46:50;32.37;;;5.83;;
8092;SDS011;4089;52.420;13.334;2023-11-21T10:49:22;25.10;;;4.90;;
8092;SDS011;4089;52.420;13.334;2023-11-21T10:51:51;28.03;;;5.30;;
8092;SDS011;4089;52.420;13.334;2023-11-21T10:56:50;29.33;;;4.60;;
8092;SDS011;4089;52.420;13.334;2023-11-21T10:59:22;24.20;;;4.70;;
8092;SDS011;4089;52.420;13.334;2023-11-21T11:01:51;27.20;;;4.67;;
8092;SDS011;4089;52.420;13.334;2023-11-21T11:04:19;24.33;;;4.57;;
8092;SDS011;4089;52.420;13.334;2023-11-21T11:06:51;24.40;;;4.73;;
8092;SDS011;4089;52.420;13.334;2023-11-21T11:09:30;28.03;;;5.10;;
8092;SDS011;4089;52.420;13.334;2023-11-21T11:12:04;28.17;;;5.57;;
8092;SDS011;4089;52.420;13.334;2023-11-21T11:14:32;26.40;;;4.53;;
8092;SDS011;4089;52.420;13.334;2023-11-21T11:16:59;23.17;;;4.03;;
8092;SDS011;4089;52.420;13.334;2023-11-21T11:19:28;26.33;;;5.00;;
8092;SDS011;4089;52.420;13.334;2023-11-21T11:22:08;24.07;;;4.23;;
8092;SDS011;4089;52.420;13.334;2023-11-21T11:38:08;23.00;;;3.80;;
8092;SDS011;4089;52.420;13.334;2023-11-21T11:40:40;25.80;;;4.73;;
8092;SDS011;4089;52.420;13.334;2023-11-21T11:43:10;21.97;;;3.50;;
8092;SDS011;4089;52.420;13.334;2023-11-21T11:45:37;24.40;;;3.63;;
8092;SDS011;4089;52.420;13.334;2023-11-21T11:48:10;25.00;;;4.23;;
8092;SDS011;4089;52.420;13.334;2023-11-21T11:53:38;22.87;;;3.70;;
8092;SDS011;4089;52.420;13.334;2023-11-21T11:59:03;22.47;;;3.83;;
8092;SDS011;4089;52.420;13.334;2023-11-21T12:01:32;22.10;;;3.50;;
8092;SDS011;4089;52.420;13.334;2023-11-21T12:06:46;23.30;;;4.17;;
8092;SDS011;4089;52.420;13.334;2023-11-21T12:09:20;22.70;;;3.50;;
8092;SDS011;4089;52.420;13.334;2023-11-21T12:11:48;24.60;;;3.50;;
8092;SDS011;4089;52.420;13.334;2023-11-21T12:14:16;21.37;;;2.50;;
8092;SDS011;4089;52.420;13.334;2023-11-21T12:16:43;26.00;;;3.50;;
8092;SDS011;4089;52.420;13.334;2023-11-21T12:19:11;20.20;;;3.40;;
8092;SDS011;4089;52.420;13.334;2023-11-21T12:21:38;21.63;;;3.53;;
8092;SDS011;4089;52.420;13.334;2023-11-21T12:24:07;22.90;;;4.10;;
8092;SDS011;4089;52.420;13.334;2023-11-21T12:26:40;21.57;;;3.10;;
8092;SDS011;4089;52.420;13.334;2023-11-21T12:29:08;22.40;;;3.23;;
8092;SDS011;4089;52.420;13.334;2023-11-21T12:31:36;23.20;;;3.50;;
8092;SDS011;4089;52.420;13.334;2023-11-21T12:34:04;21.80;;;3.90;;
8092;SDS011;4089;52.420;13.334;2023-11-21T12:36:32;22.40;;;3.33;;
8092;SDS011;4089;52.420;13.334;2023-11-21T12:39:01;22.00;;;3.27;;
8092;SDS011;4089;52.420;13.334;2023-11-21T12:41:29;21.83;;;3.70;;
8092;SDS011;4089;52.420;13.334;2023-11-21T12:43:56;26.63;;;4.10;;
8092;SDS011;4089;52.420;13.334;2023-11-21T12:46:24;25.63;;;3.53;;
8092;SDS011;4089;52.420;13.334;2023-11-21T12:48:55;23.05;;;4.10;;
8092;SDS011;4089;52.420;13.334;2023-11-21T12:51:24;23.10;;;4.17;;
8092;SDS011;4089;52.420;13.334;2023-11-21T12:53:51;22.50;;;3.90;;
8092;SDS011;4089;52.420;13.334;2023-11-21T12:56:20;24.23;;;3.70;;
8092;SDS011;4089;52.420;13.334;2023-11-21T12:58:49;21.83;;;3.30;;
8092;SDS011;4089;52.420;13.334;2023-11-21T13:01:18;21.83;;;3.40;;
8092;SDS011;4089;52.420;13.334;2023-11-21T13:03:50;22.70;;;3.23;;
8092;SDS011;4089;52.420;13.334;2023-11-21T13:06:18;21.43;;;3.33;;
8092;SDS011;4089;52.420;13.334;2023-11-21T13:08:46;23.67;;;3.50;;
8092;SDS011;4089;52.420;13.334;2023-11-21T13:11:13;22.17;;;3.37;;
8092;SDS011;4089;52.420;13.334;2023-11-21T13:13:41;21.67;;;3.80;;
8092;SDS011;4089;52.420;13.334;2023-11-21T13:16:12;23.10;;;4.00;;
8092;SDS011;4089;52.420;13.334;2023-11-21T13:18:39;21.43;;;3.60;;
8092;SDS011;4089;52.420;13.334;2023-11-21T13:21:08;21.30;;;2.60;;
8092;SDS011;4089;52.420;13.334;2023-11-21T13:23:37;21.30;;;3.20;;
8092;SDS011;4089;52.420;13.334;2023-11-21T13:26:06;21.33;;;3.63;;
8092;SDS011;4089;52.420;13.334;2023-11-21T13:28:35;21.50;;;3.63;;
8092;SDS011;4089;52.420;13.334;2023-11-21T13:31:04;27.55;;;4.43;;
8092;SDS011;4089;52.420;13.334;2023-11-21T13:33:50;29.50;;;4.40;;
8092;SDS011;4089;52.420;13.334;2023-11-21T13:36:22;26.33;;;4.03;;
8092;SDS011;4089;52.420;13.334;2023-11-21T13:38:50;29.37;;;5.37;;
8092;SDS011;4089;52.420;13.334;2023-11-21T13:41:22;24.27;;;4.70;;
8092;SDS011;4089;52.420;13.334;2023-11-21T13:43:56;27.92;;;5.78;;
8092;SDS011;4089;52.420;13.334;2023-11-21T13:46:32;29.20;;;6.30;;
8092;SDS011;4089;52.420;13.334;2023-11-21T13:49:05;23.97;;;4.67;;
8092;SDS011;4089;52.420;13.334;2023-11-21T13:51:36;27.50;;;5.40;;
8092;SDS011;4089;52.420;13.334;2023-11-21T13:54:08;30.30;;;6.67;;
8092;SDS011;4089;52.420;13.334;2023-11-21T13:56:37;27.00;;;6.00;;
8092;SDS011;4089;52.420;13.334;2023-11-21T13:59:05;26.87;;;6.20;;
8092;SDS011;4089;52.420;13.334;2023-11-21T14:01:49;26.83;;;6.30;;
8092;SDS011;4089;52.420;13.334;2023-11-21T14:04:22;26.00;;;5.63;;
8092;SDS011;4089;52.420;13.334;2023-11-21T14:06:56;26.60;;;6.07;;
8092;SDS011;4089;52.420;13.334;2023-11-21T14:09:26;29.17;;;7.20;;
8092;SDS011;4089;52.420;13.334;2023-11-21T14:12:01;30.40;;;6.93;;
8092;SDS011;4089;52.420;13.334;2023-11-21T14:14:32;26.47;;;5.80;;
8092;SDS011;4089;52.420;13.334;2023-11-21T14:17:00;25.33;;;4.90;;
8092;SDS011;4089;52.420;13.334;2023-11-21T14:19:32;28.13;;;6.40;;
8092;SDS011;4089;52.420;13.334;2023-11-21T14:22:03;29.77;;;7.10;;
8092;SDS011;4089;52.420;13.334;2023-11-21T14:24:29;27.87;;;6.67;;
8092;SDS011;4089;52.420;13.334;2023-11-21T14:26:58;29.48;;;6.85;;
8092;SDS011;4089;52.420;13.334;2023-11-21T14:29:25;30.80;;;7.28;;
8092;SDS011;4089;52.420;13.334;2023-11-21T14:31:53;28.63;;;6.60;;
8092;SDS011;4089;52.420;13.334;2023-11-21T14:34:23;27.90;;;7.37;;
8092;SDS011;4089;52.420;13.334;2023-11-21T14:36:50;28.30;;;6.70;;
8092;SDS011;4089;52.420;13.334;2023-11-21T14:39:17;27.40;;;7.00;;
8092;SDS011;4089;52.420;13.334;2023-11-21T14:41:53;34.38;;;8.90;;
8092;SDS011;4089;52.420;13.334;2023-11-21T14:44:22;29.50;;;8.50;;
8092;SDS011;4089;52.420;13.334;2023-11-21T14:46:52;31.97;;;8.60;;
8092;SDS011;4089;52.420;13.334;2023-11-21T14:49:24;30.83;;;8.00;;
8092;SDS011;4089;52.420;13.334;2023-11-21T14:51:53;32.40;;;9.13;;
8092;SDS011;4089;52.420;13.334;2023-11-21T14:54:27;33.03;;;10.97;;
8092;SDS011;4089;52.420;13.334;2023-11-21T14:57:15;33.47;;;9.70;;
8092;SDS011;4089;52.420;13.334;2023-11-21T14:59:48;36.50;;;11.47;;
8092;SDS011;4089;52.420;13.334;2023-11-21T15:02:19;40.17;;;12.23;;
8092;SDS011;4089;52.420;13.334;2023-11-21T15:05:10;42.93;;;12.53;;
8092;SDS011;4089;52.420;13.334;2023-11-21T15:07:43;42.33;;;13.93;;
8092;SDS011;4089;52.420;13.334;2023-11-21T15:10:13;35.23;;;8.80;;
8092;SDS011;4089;52.420;13.334;2023-11-21T15:12:42;45.60;;;14.70;;
8092;SDS011;4089;52.420;13.334;2023-11-21T15:15:10;39.20;;;13.40;;